sensor_id;sensor_type;location;lat;lon;timestamp;pressure;altitude;pressure_sealevel;temperature;humidity
42691;BME280;28306;55.744;37.578;2022-10-16T00:01:25;101060.34;;;21.59;37.74
42691;BME280;28306;55.744;37.578;2022-10-16T00:03:52;101056.63;;;21.60;37.83
42691;BME280;28306;55.744;37.578;2022-10-16T00:06:19;101029.28;;;21.41;37.97
42691;BME280;28306;55.744;37.578;2022-10-16T00:08:45;101032.41;;;21.45;37.84
42691;BME280;28306;55.744;37.578;2022-10-16T00:11:14;101058.25;;;21.61;37.74
42691;BME280;28306;55.744;37.578;2022-10-16T00:13:41;101054.53;;;21.55;37.57
42691;BME280;28306;55.744;37.578;2022-10-16T00:16:11;101042.81;;;21.48;37.74
42691;BME280;28306;55.744;37.578;2022-10-16T00:18:38;101065.16;;;21.64;37.65
42691;BME280;28306;55.744;37.578;2022-10-16T00:21:12;101071.81;;;21.61;37.69
42691;BME280;28306;55.744;37.578;2022-10-16T00:23:38;101057.84;;;21.51;37.73
42691;BME280;28306;55.744;37.578;2022-10-16T00:26:06;101071.19;;;21.59;37.73
42691;BME280;28306;55.744;37.578;2022-10-16T00:28:33;101079.31;;;21.59;37.83
42691;BME280;28306;55.744;37.578;2022-10-16T00:31:03;101075.97;;;21.57;37.71
42691;BME280;28306;55.744;37.578;2022-10-16T00:33:28;101069.72;;;21.56;37.76
42691;BME280;28306;55.744;37.578;2022-10-16T00:35:57;101059.91;;;21.49;37.64
42691;BME280;28306;55.744;37.578;2022-10-16T00:38:24;101056.78;;;21.45;37.73
42691;BME280;28306;55.744;37.578;2022-10-16T00:40:49;101076.81;;;21.51;37.80
42691;BME280;28306;55.744;37.578;2022-10-16T00:46:00;101068.03;;;21.49;37.89
42691;BME280;28306;55.744;37.578;2022-10-16T00:48:26;101076.16;;;21.49;38.11
42691;BME280;28306;55.744;37.578;2022-10-16T00:50:52;101057.81;;;21.44;37.80
42691;BME280;28306;55.744;37.578;2022-10-16T00:53:19;101061.97;;;21.47;37.69
42691;BME280;28306;55.744;37.578;2022-10-16T00:55:45;101061.78;;;21.48;37.73
42691;BME280;28306;55.744;37.578;2022-10-16T00:58:11;101064.28;;;21.43;37.66
42691;BME280;28306;55.744;37.578;2022-10-16T01:00:38;101066.13;;;21.42;37.90
42691;BME280;28306;55.744;37.578;2022-10-16T01:03:40;101086.16;;;21.55;37.77
42691;BME280;28306;55.744;37.578;2022-10-16T01:14:46;101096.59;;;21.51;37.74
42691;BME280;28306;55.744;37.578;2022-10-16T01:17:18;101095.78;;;21.51;37.92
42691;BME280;28306;55.744;37.578;2022-10-16T01:19:56;101087.66;;;21.51;37.60
42691;BME280;28306;55.744;37.578;2022-10-16T01:22:36;101096.97;;;21.48;37.81
42691;BME280;28306;55.744;37.578;2022-10-16T01:25:08;101083.03;;;21.38;37.87
42691;BME280;28306;55.744;37.578;2022-10-16T01:27:39;101103.03;;;21.50;37.75
42691;BME280;28306;55.744;37.578;2022-10-16T01:35:34;101096.16;;;21.48;37.69
42691;BME280;28306;55.744;37.578;2022-10-16T01:38:12;101101.78;;;21.46;37.81
42691;BME280;28306;55.744;37.578;2022-10-16T01:40:44;101084.25;;;21.35;37.57
42691;BME280;28306;55.744;37.578;2022-10-16T01:43:17;101103.84;;;21.44;37.73
42691;BME280;28306;55.744;37.578;2022-10-16T01:45:44;101114.06;;;21.49;37.44
42691;BME280;28306;55.744;37.578;2022-10-16T01:48:14;101115.09;;;21.48;37.78
42691;BME280;28306;55.744;37.578;2022-10-16T01:50:44;101114.06;;;21.49;37.79
42691;BME280;28306;55.744;37.578;2022-10-16T01:53:12;101102.59;;;21.40;37.72
42691;BME280;28306;55.744;37.578;2022-10-16T01:55:41;101077.16;;;21.28;37.78
42691;BME280;28306;55.744;37.578;2022-10-16T01:58:11;101080.91;;;21.27;37.79
42691;BME280;28306;55.744;37.578;2022-10-16T02:00:41;101099.47;;;21.36;37.85
42691;BME280;28306;55.744;37.578;2022-10-16T02:03:08;101114.47;;;21.46;37.67
42691;BME280;28306;55.744;37.578;2022-10-16T02:05:45;101109.91;;;21.46;37.62
42691;BME280;28306;55.744;37.578;2022-10-16T02:08:11;101115.31;;;21.46;37.74
42691;BME280;28306;55.744;37.578;2022-10-16T02:10:37;101117.16;;;21.46;37.66
42691;BME280;28306;55.744;37.578;2022-10-16T02:15:51;101108.22;;;21.38;37.77
42691;BME280;28306;55.744;37.578;2022-10-16T02:18:20;101110.31;;;21.43;37.76
42691;BME280;28306;55.744;37.578;2022-10-16T02:20:59;101112.81;;;21.45;37.68
42691;BME280;28306;55.744;37.578;2022-10-16T02:23:43;101112.81;;;21.45;37.71
42691;BME280;28306;55.744;37.578;2022-10-16T02:26:15;101114.03;;;21.42;37.67
42691;BME280;28306;55.744;37.578;2022-10-16T02:28:45;101118.63;;;21.41;37.71
42691;BME280;28306;55.744;37.578;2022-10-16T02:31:17;101114.03;;;21.42;37.82
42691;BME280;28306;55.744;37.578;2022-10-16T02:33:45;101116.97;;;21.40;37.78
42691;BME280;28306;55.744;37.578;2022-10-16T02:36:11;101109.44;;;21.36;37.81
42691;BME280;28306;55.744;37.578;2022-10-16T02:38:39;101126.75;;;21.41;37.67
42691;BME280;28306;55.744;37.578;2022-10-16T02:41:05;101115.72;;;21.36;37.71
42691;BME280;28306;55.744;37.578;2022-10-16T02:43:31;101119.47;;;21.35;37.68
42691;BME280;28306;55.744;37.578;2022-10-16T02:45:58;101124.25;;;21.40;37.88
42691;BME280;28306;55.744;37.578;2022-10-16T02:48:24;101100.91;;;21.26;37.69
42691;BME280;28306;55.744;37.578;2022-10-16T02:50:50;101102.34;;;21.28;37.74
42691;BME280;28306;55.744;37.578;2022-10-16T02:53:16;101121.75;;;21.38;37.90
42691;BME280;28306;55.744;37.578;2022-10-16T02:55:42;101130.50;;;21.34;37.78
42691;BME280;28306;55.744;37.578;2022-10-16T02:58:08;101092.56;;;21.14;37.79
42691;BME280;28306;55.744;37.578;2022-10-16T03:00:33;101097.34;;;21.18;37.65
42691;BME280;28306;55.744;37.578;2022-10-16T03:02:59;101128.19;;;21.37;37.77
42691;BME280;28306;55.744;37.578;2022-10-16T03:05:25;101120.69;;;21.33;37.82
42691;BME280;28306;55.744;37.578;2022-10-16T03:07:50;101124.66;;;21.30;37.83
42691;BME280;28306;55.744;37.578;2022-10-16T03:10:18;101124.00;;;21.28;37.69
42691;BME280;28306;55.744;37.578;2022-10-16T03:12:44;101134.44;;;21.31;37.82
42691;BME280;28306;55.744;37.578;2022-10-16T03:15:09;101129.88;;;21.32;37.79
42691;BME280;28306;55.744;37.578;2022-10-16T03:17:35;101119.41;;;21.22;37.85
42691;BME280;28306;55.744;37.578;2022-10-16T03:20:01;101133.41;;;21.32;37.75
42691;BME280;28306;55.744;37.578;2022-10-16T03:22:27;101138.41;;;21.35;37.68
42691;BME280;28306;55.744;37.578;2022-10-16T03:24:52;101137.59;;;21.35;37.72
42691;BME280;28306;55.744;37.578;2022-10-16T03:27:18;101109.41;;;21.16;37.82
42691;BME280;28306;55.744;37.578;2022-10-16T03:29:43;101137.78;;;21.33;37.74
42691;BME280;28306;55.744;37.578;2022-10-16T03:32:09;101140.50;;;21.33;37.68
42691;BME280;28306;55.744;37.578;2022-10-16T03:34:35;101147.56;;;21.34;37.85
42691;BME280;28306;55.744;37.578;2022-10-16T03:37:00;101148.56;;;21.27;37.79
42691;BME280;28306;55.744;37.578;2022-10-16T03:39:26;101149.44;;;21.34;37.83
42691;BME280;28306;55.744;37.578;2022-10-16T03:41:52;101151.09;;;21.28;37.91
42691;BME280;28306;55.744;37.578;2022-10-16T03:44:18;101151.09;;;21.28;37.82
42691;BME280;28306;55.744;37.578;2022-10-16T03:46:43;101149.66;;;21.32;37.66
42691;BME280;28306;55.744;37.578;2022-10-16T03:49:09;101157.34;;;21.35;37.78
42691;BME280;28306;55.744;37.578;2022-10-16T03:51:35;101160.28;;;21.34;37.68
42691;BME280;28306;55.744;37.578;2022-10-16T03:54:00;101154.22;;;21.32;38.02
42691;BME280;28306;55.744;37.578;2022-10-16T03:56:26;101145.66;;;21.21;37.75
42691;BME280;28306;55.744;37.578;2022-10-16T03:58:51;101146.06;;;21.18;37.84
42691;BME280;28306;55.744;37.578;2022-10-16T04:01:17;101151.28;;;21.27;37.84
42691;BME280;28306;55.744;37.578;2022-10-16T04:03:42;101153.59;;;21.30;37.77
42691;BME280;28306;55.744;37.578;2022-10-16T04:06:08;101151.09;;;21.28;37.63
42691;BME280;28306;55.744;37.578;2022-10-16T04:08:34;101132.75;;;21.17;37.76
42691;BME280;28306;55.744;37.578;2022-10-16T04:11:02;101144.63;;;21.22;37.51
42691;BME280;28306;55.744;37.578;2022-10-16T04:13:27;101111.69;;;21.05;37.67
42691;BME280;28306;55.744;37.578;2022-10-16T04:15:53;101136.72;;;21.21;37.82
42691;BME280;28306;55.744;37.578;2022-10-16T04:18:19;101112.50;;;21.06;37.76
42691;BME280;28306;55.744;37.578;2022-10-16T04:20:44;101146.94;;;21.26;37.55
42691;BME280;28306;55.744;37.578;2022-10-16T04:23:10;101149.19;;;21.22;37.65
42691;BME280;28306;55.744;37.578;2022-10-16T04:25:36;101143.16;;;21.20;37.73
42691;BME280;28306;55.744;37.578;2022-10-16T04:28:02;101112.69;;;20.98;37.79
42691;BME280;28306;55.744;37.578;2022-10-16T04:30:27;101144.38;;;21.17;37.76
42691;BME280;28306;55.744;37.578;2022-10-16T04:32:53;101150.66;;;21.18;37.75
42691;BME280;28306;55.744;37.578;2022-10-16T04:35:20;101172.75;;;21.28;37.63
42691;BME280;28306;55.744;37.578;2022-10-16T04:37:46;101162.56;;;21.30;37.60
42691;BME280;28306;55.744;37.578;2022-10-16T04:40:13;101142.75;;;21.16;37.64
42691;BME280;28306;55.744;37.578;2022-10-16T04:42:38;101166.28;;;21.29;37.66
42691;BME280;28306;55.744;37.578;2022-10-16T04:45:05;101166.91;;;21.24;37.85
42691;BME280;28306;55.744;37.578;2022-10-16T04:47:31;101158.56;;;21.19;37.79
42691;BME280;28306;55.744;37.578;2022-10-16T04:49:57;101162.97;;;21.27;37.70
42691;BME280;28306;55.744;37.578;2022-10-16T04:52:23;101153.78;;;21.21;37.74
42691;BME280;28306;55.744;37.578;2022-10-16T04:54:50;101173.38;;;21.30;37.63
42691;BME280;28306;55.744;37.578;2022-10-16T04:57:16;101156.06;;;21.18;37.45
42691;BME280;28306;55.744;37.578;2022-10-16T04:59:42;101160.63;;;21.17;37.73
42691;BME280;28306;55.744;37.578;2022-10-16T05:02:08;101167.31;;;21.21;37.63
42691;BME280;28306;55.744;37.578;2022-10-16T05:04:34;101167.72;;;21.25;37.57
42691;BME280;28306;55.744;37.578;2022-10-16T05:06:59;101174.41;;;21.29;37.55
42691;BME280;28306;55.744;37.578;2022-10-16T05:09:25;101183.16;;;21.31;37.62
42691;BME280;28306;55.744;37.578;2022-10-16T05:11:51;101162.31;;;21.18;37.70
42691;BME280;28306;55.744;37.578;2022-10-16T05:14:16;101129.75;;;20.98;37.58
42691;BME280;28306;55.744;37.578;2022-10-16T05:16:42;101170.22;;;21.27;37.58
42691;BME280;28306;55.744;37.578;2022-10-16T05:19:07;101182.34;;;21.31;37.62
42691;BME280;28306;55.744;37.578;2022-10-16T05:21:33;101158.13;;;21.16;37.47
42691;BME280;28306;55.744;37.578;2022-10-16T05:23:59;101171.50;;;21.24;37.66
42691;BME280;28306;55.744;37.578;2022-10-16T05:26:24;101190.88;;;21.34;37.45
42691;BME280;28306;55.744;37.578;2022-10-16T05:28:50;101186.53;;;21.33;37.47
42691;BME280;28306;55.744;37.578;2022-10-16T05:31:16;101169.81;;;21.23;37.60
42691;BME280;28306;55.744;37.578;2022-10-16T05:33:41;101194.44;;;21.35;37.75
42691;BME280;28306;55.744;37.578;2022-10-16T05:36:10;101182.94;;;21.26;37.39
42691;BME280;28306;55.744;37.578;2022-10-16T05:38:36;101189.22;;;21.33;37.48
42691;BME280;28306;55.744;37.578;2022-10-16T05:41:03;101193.59;;;21.34;37.51
42691;BME280;28306;55.744;37.578;2022-10-16T05:43:29;101198.16;;;21.34;37.53
42691;BME280;28306;55.744;37.578;2022-10-16T05:46:00;101196.94;;;21.36;37.67
42691;BME280;28306;55.744;37.578;2022-10-16T05:48:26;101177.31;;;21.28;37.29
42691;BME280;28306;55.744;37.578;2022-10-16T05:51:05;101177.31;;;21.28;37.61
42691;BME280;28306;55.744;37.578;2022-10-16T05:53:34;101187.53;;;21.32;37.67
42691;BME280;28306;55.744;37.578;2022-10-16T05:56:00;101197.78;;;21.37;37.59
42691;BME280;28306;55.744;37.578;2022-10-16T05:58:29;101182.75;;;21.28;37.49
42691;BME280;28306;55.744;37.578;2022-10-16T06:00:58;101195.25;;;21.35;37.48
42691;BME280;28306;55.744;37.578;2022-10-16T06:03:24;101196.53;;;21.39;37.48
42691;BME280;28306;55.744;37.578;2022-10-16T06:05:50;101183.56;;;21.28;37.67
42691;BME280;28306;55.744;37.578;2022-10-16T06:08:16;101202.56;;;21.41;37.38
42691;BME280;28306;55.744;37.578;2022-10-16T06:10:44;101202.78;;;21.40;37.33
42691;BME280;28306;55.744;37.578;2022-10-16T06:13:10;101201.94;;;21.39;37.48
42691;BME280;28306;55.744;37.578;2022-10-16T06:15:37;101202.56;;;21.41;37.33
42691;BME280;28306;55.744;37.578;2022-10-16T06:18:05;101197.34;;;21.40;37.33
42691;BME280;28306;55.744;37.578;2022-10-16T06:20:31;101201.31;;;21.44;37.31
42691;BME280;28306;55.744;37.578;2022-10-16T06:22:57;101190.66;;;21.36;37.20
42691;BME280;28306;55.744;37.578;2022-10-16T06:25:22;101201.50;;;21.42;37.26
42691;BME280;28306;55.744;37.578;2022-10-16T06:27:48;101179.63;;;21.31;37.29
42691;BME280;28306;55.744;37.578;2022-10-16T06:30:14;101208.00;;;21.48;37.22
42691;BME280;28306;55.744;37.578;2022-10-16T06:32:39;101189.44;;;21.38;37.43
42691;BME280;28306;55.744;37.578;2022-10-16T06:35:05;101213.03;;;21.51;37.41
42691;BME280;28306;55.744;37.578;2022-10-16T06:37:31;101194.44;;;21.41;37.33
42691;BME280;28306;55.744;37.578;2022-10-16T06:39:56;101205.28;;;21.48;37.22
42691;BME280;28306;55.744;37.578;2022-10-16T06:42:22;101220.97;;;21.59;37.29
42691;BME280;28306;55.744;37.578;2022-10-16T06:44:48;101196.59;;;21.53;37.15
42691;BME280;28306;55.744;37.578;2022-10-16T06:47:13;101177.78;;;21.45;37.01
42691;BME280;28306;55.744;37.578;2022-10-16T06:49:39;101214.97;;;21.71;37.06
42691;BME280;28306;55.744;37.578;2022-10-16T06:52:05;101190.16;;;21.67;36.97
42691;BME280;28306;55.744;37.578;2022-10-16T06:54:30;101207.88;;;21.83;36.98
42691;BME280;28306;55.744;37.578;2022-10-16T06:56:56;101196.63;;;21.80;36.90
42691;BME280;28306;55.744;37.578;2022-10-16T06:59:22;101216.66;;;21.99;36.42
42691;BME280;28306;55.744;37.578;2022-10-16T07:01:48;101220.22;;;22.06;36.57
42691;BME280;28306;55.744;37.578;2022-10-16T07:04:14;101202.25;;;22.05;36.30
42691;BME280;28306;55.744;37.578;2022-10-16T07:06:39;101201.44;;;22.11;36.22
42691;BME280;28306;55.744;37.578;2022-10-16T07:09:08;101224.38;;;22.28;36.12
42691;BME280;28306;55.744;37.578;2022-10-16T07:11:36;101227.94;;;22.29;36.16
42691;BME280;28306;55.744;37.578;2022-10-16T07:14:02;101199.97;;;22.22;36.20
42691;BME280;28306;55.744;37.578;2022-10-16T07:16:30;101219.16;;;22.27;36.18
42691;BME280;28306;55.744;37.578;2022-10-16T07:18:57;101223.75;;;22.26;36.10
42691;BME280;28306;55.744;37.578;2022-10-16T07:21:25;101224.38;;;22.22;36.17
42691;BME280;28306;55.744;37.578;2022-10-16T07:23:57;101230.41;;;22.24;36.07
42691;BME280;28306;55.744;37.578;2022-10-16T07:26:24;101188.31;;;21.94;36.19
42691;BME280;28306;55.744;37.578;2022-10-16T07:28:50;101226.06;;;22.23;36.12
42691;BME280;28306;55.744;37.578;2022-10-16T07:31:18;101226.47;;;22.26;36.31
42691;BME280;28306;55.744;37.578;2022-10-16T07:33:44;101205.81;;;22.12;36.20
42691;BME280;28306;55.744;37.578;2022-10-16T07:36:12;101227.75;;;22.30;36.24
42691;BME280;28306;55.744;37.578;2022-10-16T07:38:37;101209.34;;;22.19;36.35
42691;BME280;28306;55.744;37.578;2022-10-16T07:41:06;101222.47;;;22.22;36.20
42691;BME280;28306;55.744;37.578;2022-10-16T07:43:32;101222.94;;;22.26;36.36
42691;BME280;28306;55.744;37.578;2022-10-16T07:45:58;101233.34;;;22.29;36.29
42691;BME280;28306;55.744;37.578;2022-10-16T07:48:27;101214.34;;;22.22;36.47
42691;BME280;28306;55.744;37.578;2022-10-16T07:50:57;101221.66;;;22.28;36.23
42691;BME280;28306;55.744;37.578;2022-10-16T07:53:23;101214.59;;;22.27;36.37
42691;BME280;28306;55.744;37.578;2022-10-16T07:55:48;101228.75;;;22.29;36.58
42691;BME280;28306;55.744;37.578;2022-10-16T07:58:14;101222.06;;;22.25;36.55
42691;BME280;28306;55.744;37.578;2022-10-16T08:00:40;101217.28;;;22.21;36.58
42691;BME280;28306;55.744;37.578;2022-10-16T08:03:05;101228.56;;;22.31;36.71
42691;BME280;28306;55.744;37.578;2022-10-16T08:05:32;101220.84;;;22.21;36.62
42691;BME280;28306;55.744;37.578;2022-10-16T08:07:58;101231.28;;;22.31;36.68
42691;BME280;28306;55.744;37.578;2022-10-16T08:10:26;101217.91;;;22.23;36.73
42691;BME280;28306;55.744;37.578;2022-10-16T08:12:52;101227.94;;;22.29;36.68
42691;BME280;28306;55.744;37.578;2022-10-16T08:15:19;101228.97;;;22.28;36.86
42691;BME280;28306;55.744;37.578;2022-10-16T08:17:54;101206.22;;;22.16;36.83
42691;BME280;28306;55.744;37.578;2022-10-16T08:20:20;101227.50;;;22.25;36.70
42691;BME280;28306;55.744;37.578;2022-10-16T08:22:46;101215.41;;;22.21;36.93
42691;BME280;28306;55.744;37.578;2022-10-16T08:25:11;101218.31;;;22.26;36.85
42691;BME280;28306;55.744;37.578;2022-10-16T08:27:37;101205.00;;;22.18;37.14
42691;BME280;28306;55.744;37.578;2022-10-16T08:30:03;101213.94;;;22.25;37.10
42691;BME280;28306;55.744;37.578;2022-10-16T08:32:28;101201.63;;;22.16;36.89
42691;BME280;28306;55.744;37.578;2022-10-16T08:34:54;101203.94;;;22.19;36.96
42691;BME280;28306;55.744;37.578;2022-10-16T08:37:20;101200.81;;;22.16;37.00
42691;BME280;28306;55.744;37.578;2022-10-16T08:39:45;101203.31;;;22.17;36.95
42691;BME280;28306;55.744;37.578;2022-10-16T08:42:53;101216.69;;;22.32;36.93
42691;BME280;28306;55.744;37.578;2022-10-16T09:00:38;101207.69;;;22.25;37.12
42691;BME280;28306;55.744;37.578;2022-10-16T09:06:00;101215.84;;;22.31;37.17
42691;BME280;28306;55.744;37.578;2022-10-16T09:13:50;101207.47;;;22.26;36.62
42691;BME280;28306;55.744;37.578;2022-10-16T09:21:36;101204.78;;;22.33;36.63
42691;BME280;28306;55.744;37.578;2022-10-16T09:24:15;101203.75;;;22.34;36.63
42691;BME280;28306;55.744;37.578;2022-10-16T09:26:42;101210.44;;;22.38;36.78
42691;BME280;28306;55.744;37.578;2022-10-16T09:29:16;101215.63;;;22.40;36.85
42691;BME280;28306;55.744;37.578;2022-10-16T09:31:42;101208.75;;;22.37;36.79
42691;BME280;28306;55.744;37.578;2022-10-16T09:34:24;101207.72;;;22.38;36.77
42691;BME280;28306;55.744;37.578;2022-10-16T09:36:53;101201.66;;;22.36;36.99
42691;BME280;28306;55.744;37.578;2022-10-16T09:39:19;101207.09;;;22.36;36.93
42691;BME280;28306;55.744;37.578;2022-10-16T09:41:45;101194.75;;;22.27;37.11
42691;BME280;28306;55.744;37.578;2022-10-16T09:44:30;101201.66;;;22.36;36.94
42691;BME280;28306;55.744;37.578;2022-10-16T09:49:39;101197.91;;;22.37;37.04
42691;BME280;28306;55.744;37.578;2022-10-16T09:52:15;101194.16;;;22.38;37.11
42691;BME280;28306;55.744;37.578;2022-10-16T09:54:55;101204.56;;;22.41;37.20
42691;BME280;28306;55.744;37.578;2022-10-16T09:57:21;101173.53;;;22.30;36.95
42691;BME280;28306;55.744;37.578;2022-10-16T09:59:48;101183.50;;;22.43;37.21
42691;BME280;28306;55.744;37.578;2022-10-16T10:02:16;101182.44;;;22.44;37.23
42691;BME280;28306;55.744;37.578;2022-10-16T10:04:53;101158.06;;;22.38;36.89
42691;BME280;28306;55.744;37.578;2022-10-16T10:07:33;101190.16;;;22.54;36.74
42691;BME280;28306;55.744;37.578;2022-10-16T10:10:04;101184.09;;;22.52;36.75
42691;BME280;28306;55.744;37.578;2022-10-16T10:12:31;101176.41;;;22.42;36.86
42691;BME280;28306;55.744;37.578;2022-10-16T10:15:07;101170.75;;;22.50;36.87
42691;BME280;28306;55.744;37.578;2022-10-16T10:17:49;101175.75;;;22.54;36.63
42691;BME280;28306;55.744;37.578;2022-10-16T10:22:53;101160.31;;;22.47;36.56
42691;BME280;28306;55.744;37.578;2022-10-16T10:25:39;101169.72;;;22.52;36.76
42691;BME280;28306;55.744;37.578;2022-10-16T10:33:16;101162.63;;;22.50;36.57
42691;BME280;28306;55.744;37.578;2022-10-16T10:44:16;101168.69;;;22.53;36.55
42691;BME280;28306;55.744;37.578;2022-10-16T10:52:35;101169.72;;;22.52;36.36
42691;BME280;28306;55.744;37.578;2022-10-16T10:55:13;101161.59;;;22.52;36.55
42691;BME280;28306;55.744;37.578;2022-10-16T11:00:56;101159.25;;;22.55;36.45
42691;BME280;28306;55.744;37.578;2022-10-16T11:04:19;101154.47;;;22.57;36.55
42691;BME280;28306;55.744;37.578;2022-10-16T11:06:36;101168.47;;;22.54;36.52
42691;BME280;28306;55.744;37.578;2022-10-16T11:09:15;101160.13;;;22.56;36.32
42691;BME280;28306;55.744;37.578;2022-10-16T11:11:51;101152.59;;;22.58;36.61
42691;BME280;28306;55.744;37.578;2022-10-16T11:14:34;101140.91;;;22.50;36.35
42691;BME280;28306;55.744;37.578;2022-10-16T11:17:11;101153.19;;;22.60;36.35
42691;BME280;28306;55.744;37.578;2022-10-16T11:22:54;101164.88;;;22.67;36.43
42691;BME280;28306;55.744;37.578;2022-10-16T11:30:41;101155.72;;;22.68;36.21
42691;BME280;28306;55.744;37.578;2022-10-16T11:38:43;101134.22;;;22.60;36.23
42691;BME280;28306;55.744;37.578;2022-10-16T11:41:22;101142.75;;;22.70;36.24
42691;BME280;28306;55.744;37.578;2022-10-16T11:49:32;101144.00;;;22.67;36.17
42691;BME280;28306;55.744;37.578;2022-10-16T11:57:21;101138.31;;;22.76;36.11
42691;BME280;28306;55.744;37.578;2022-10-16T12:00:14;101141.91;;;22.76;36.10
42691;BME280;28306;55.744;37.578;2022-10-16T12:05:55;101138.53;;;22.74;36.11
42691;BME280;28306;55.744;37.578;2022-10-16T12:08:23;101150.06;;;22.70;36.07
42691;BME280;28306;55.744;37.578;2022-10-16T12:10:49;101142.53;;;22.72;36.04
42691;BME280;28306;55.744;37.578;2022-10-16T12:13:35;101151.06;;;22.75;36.14
42691;BME280;28306;55.744;37.578;2022-10-16T12:18:32;101132.28;;;22.74;36.11
42691;BME280;28306;55.744;37.578;2022-10-16T12:20:58;101138.97;;;22.78;36.15
42691;BME280;28306;55.744;37.578;2022-10-16T12:23:29;101129.75;;;22.79;36.01
42691;BME280;28306;55.744;37.578;2022-10-16T12:25:59;101124.13;;;22.80;36.09
42691;BME280;28306;55.744;37.578;2022-10-16T12:28:27;101117.88;;;22.80;36.11
42691;BME280;28306;55.744;37.578;2022-10-16T12:31:01;101113.69;;;22.84;35.69
42691;BME280;28306;55.744;37.578;2022-10-16T12:33:28;101118.03;;;22.92;35.91
42691;BME280;28306;55.744;37.578;2022-10-16T12:35:54;101099.69;;;22.80;36.08
42691;BME280;28306;55.744;37.578;2022-10-16T12:38:27;101113.47;;;22.85;35.92
42691;BME280;28306;55.744;37.578;2022-10-16T12:41:07;101114.28;;;22.86;35.90
42691;BME280;28306;55.744;37.578;2022-10-16T12:46:24;101112.00;;;22.83;35.98
42691;BME280;28306;55.744;37.578;2022-10-16T12:51:40;101114.13;;;22.81;36.14
42691;BME280;28306;55.744;37.578;2022-10-16T12:54:15;101095.59;;;22.71;35.84
42691;BME280;28306;55.744;37.578;2022-10-16T12:56:50;101089.53;;;22.69;35.92
42691;BME280;28306;55.744;37.578;2022-10-16T12:59:28;101110.56;;;22.80;36.08
42691;BME280;28306;55.744;37.578;2022-10-16T13:02:30;101107.84;;;22.80;35.83
42691;BME280;28306;55.744;37.578;2022-10-16T13:29:09;101115.16;;;22.80;36.18
42691;BME280;28306;55.744;37.578;2022-10-16T13:31:37;101099.53;;;22.75;35.94
42691;BME280;28306;55.744;37.578;2022-10-16T13:34:05;101122.66;;;22.84;35.92
42691;BME280;28306;55.744;37.578;2022-10-16T13:36:42;101097.84;;;22.74;35.94
42691;BME280;28306;55.744;37.578;2022-10-16T13:41:40;101109.50;;;22.81;35.85
42691;BME280;28306;55.744;37.578;2022-10-16T13:44:19;101117.00;;;22.86;35.99
42691;BME280;28306;55.744;37.578;2022-10-16T13:46:46;101116.63;;;22.82;35.97
42691;BME280;28306;55.744;37.578;2022-10-16T13:49:14;101112.84;;;22.83;35.85
42691;BME280;28306;55.744;37.578;2022-10-16T13:51:41;101104.91;;;22.82;35.85
42691;BME280;28306;55.744;37.578;2022-10-16T13:54:10;101109.69;;;22.86;36.00
42691;BME280;28306;55.744;37.578;2022-10-16T13:56:38;101105.31;;;22.85;36.03
42691;BME280;28306;55.744;37.578;2022-10-16T14:02:36;101113.47;;;22.85;36.01
42691;BME280;28306;55.744;37.578;2022-10-16T14:05:04;101083.09;;;22.63;35.87
42691;BME280;28306;55.744;37.578;2022-10-16T14:07:34;101116.19;;;22.79;36.18
42691;BME280;28306;55.744;37.578;2022-10-16T14:10:36;101107.22;;;22.78;36.02
42691;BME280;28306;55.744;37.578;2022-10-16T14:13:04;101114.75;;;22.76;35.75
42691;BME280;28306;55.744;37.578;2022-10-16T14:15:33;101104.16;;;22.68;36.18
42691;BME280;28306;55.744;37.578;2022-10-16T14:18:00;101087.28;;;22.59;36.04
42691;BME280;28306;55.744;37.578;2022-10-16T14:20:32;101115.59;;;22.77;35.96
42691;BME280;28306;55.744;37.578;2022-10-16T14:23:03;101117.69;;;22.75;35.97
42691;BME280;28306;55.744;37.578;2022-10-16T14:25:31;101122.25;;;22.74;36.07
42691;BME280;28306;55.744;37.578;2022-10-16T14:28:18;101107.66;;;22.75;36.18
42691;BME280;28306;55.744;37.578;2022-10-16T14:31:02;101113.09;;;22.75;36.13
42691;BME280;28306;55.744;37.578;2022-10-16T14:33:40;101114.34;;;22.73;36.15
42691;BME280;28306;55.744;37.578;2022-10-16T14:36:12;101116.00;;;22.74;36.16
42691;BME280;28306;55.744;37.578;2022-10-16T14:38:40;101109.97;;;22.72;36.01
42691;BME280;28306;55.744;37.578;2022-10-16T14:41:08;101111.00;;;22.71;36.08
42691;BME280;28306;55.744;37.578;2022-10-16T14:43:41;101114.59;;;22.71;36.29
42691;BME280;28306;55.744;37.578;2022-10-16T14:46:20;101111.88;;;22.71;36.48
42691;BME280;28306;55.744;37.578;2022-10-16T14:48:50;101105.63;;;22.64;36.17
42691;BME280;28306;55.744;37.578;2022-10-16T14:51:18;101117.50;;;22.70;36.27
42691;BME280;28306;55.744;37.578;2022-10-16T14:53:44;101110.63;;;22.67;36.17
42691;BME280;28306;55.744;37.578;2022-10-16T14:56:24;101110.19;;;22.70;36.17
42691;BME280;28306;55.744;37.578;2022-10-16T14:58:51;101097.31;;;22.59;36.18
42691;BME280;28306;55.744;37.578;2022-10-16T15:01:17;101118.94;;;22.72;36.13
42691;BME280;28306;55.744;37.578;2022-10-16T15:03:43;101101.06;;;22.58;36.24
42691;BME280;28306;55.744;37.578;2022-10-16T15:06:14;101129.63;;;22.67;36.32
42691;BME280;28306;55.744;37.578;2022-10-16T15:08:41;101117.31;;;22.64;36.28
42691;BME280;28306;55.744;37.578;2022-10-16T15:11:12;101120.22;;;22.63;36.10
42691;BME280;28306;55.744;37.578;2022-10-16T15:13:39;101130.25;;;22.62;36.30